sensor_id;sensor_type;location;lat;lon;timestamp;temperature;humidity
7704;DHT22;3894;49.700;10.770;2023-04-03T00:02:07;3.50;99.90
7704;DHT22;3894;49.700;10.770;2023-04-03T00:04:33;3.50;99.90
7704;DHT22;3894;49.700;10.770;2023-04-03T00:06:58;3.50;99.90
7704;DHT22;3894;49.700;10.770;2023-04-03T00:09:24;3.50;99.90
7704;DHT22;3894;49.700;10.770;2023-04-03T00:11:50;3.40;99.90
7704;DHT22;3894;49.700;10.770;2023-04-03T00:14:16;3.40;99.90
7704;DHT22;3894;49.700;10.770;2023-04-03T00:16:41;3.40;99.90
7704;DHT22;3894;49.700;10.770;2023-04-03T00:19:07;3.30;99.90
7704;DHT22;3894;49.700;10.770;2023-04-03T00:21:33;3.30;99.90
7704;DHT22;3894;49.700;10.770;2023-04-03T00:23:59;3.30;99.90
7704;DHT22;3894;49.700;10.770;2023-04-03T00:26:39;3.30;99.90
7704;DHT22;3894;49.700;10.770;2023-04-03T00:29:05;3.20;99.90
7704;DHT22;3894;49.700;10.770;2023-04-03T00:31:30;3.20;99.90
7704;DHT22;3894;49.700;10.770;2023-04-03T00:33:56;3.20;99.90
7704;DHT22;3894;49.700;10.770;2023-04-03T00:36:22;3.20;99.90
7704;DHT22;3894;49.700;10.770;2023-04-03T00:38:47;3.10;99.90
7704;DHT22;3894;49.700;10.770;2023-04-03T00:41:13;3.10;99.90
7704;DHT22;3894;49.700;10.770;2023-04-03T00:43:38;3.10;99.90
7704;DHT22;3894;49.700;10.770;2023-04-03T00:46:04;3.10;99.90
7704;DHT22;3894;49.700;10.770;2023-04-03T00:48:39;3.00;99.90
7704;DHT22;3894;49.700;10.770;2023-04-03T00:51:07;3.00;99.90
7704;DHT22;3894;49.700;10.770;2023-04-03T00:53:50;3.10;99.90
7704;DHT22;3894;49.700;10.770;2023-04-03T00:56:19;3.00;99.90
7704;DHT22;3894;49.700;10.770;2023-04-03T00:58:58;3.10;99.90
7704;DHT22;3894;49.700;10.770;2023-04-03T01:01:27;3.10;99.90
7704;DHT22;3894;49.700;10.770;2023-04-03T01:03:53;3.10;99.90
7704;DHT22;3894;49.700;10.770;2023-04-03T01:06:23;3.10;99.90
7704;DHT22;3894;49.700;10.770;2023-04-03T01:08:51;3.10;99.90
7704;DHT22;3894;49.700;10.770;2023-04-03T01:11:17;3.10;99.90
7704;DHT22;3894;49.700;10.770;2023-04-03T01:13:43;3.00;99.90
7704;DHT22;3894;49.700;10.770;2023-04-03T01:16:08;3.00;99.90
7704;DHT22;3894;49.700;10.770;2023-04-03T01:18:46;2.90;99.90
7704;DHT22;3894;49.700;10.770;2023-04-03T01:24:36;2.80;99.90
7704;DHT22;3894;49.700;10.770;2023-04-03T01:27:07;2.80;99.90
7704;DHT22;3894;49.700;10.770;2023-04-03T01:29:33;2.80;99.90
7704;DHT22;3894;49.700;10.770;2023-04-03T01:32:00;2.70;99.90
7704;DHT22;3894;49.700;10.770;2023-04-03T01:34:27;2.60;99.90
7704;DHT22;3894;49.700;10.770;2023-04-03T01:36:53;2.60;99.90
7704;DHT22;3894;49.700;10.770;2023-04-03T01:39:19;2.60;99.90
7704;DHT22;3894;49.700;10.770;2023-04-03T01:41:45;2.60;99.90
7704;DHT22;3894;49.700;10.770;2023-04-03T01:44:11;2.60;99.90
7704;DHT22;3894;49.700;10.770;2023-04-03T01:46:37;2.60;99.90
7704;DHT22;3894;49.700;10.770;2023-04-03T01:49:03;2.50;99.90
7704;DHT22;3894;49.700;10.770;2023-04-03T01:51:29;2.50;99.90
7704;DHT22;3894;49.700;10.770;2023-04-03T01:53:55;2.60;99.90
7704;DHT22;3894;49.700;10.770;2023-04-03T01:56:21;2.60;99.90
7704;DHT22;3894;49.700;10.770;2023-04-03T01:58:46;2.70;99.90
7704;DHT22;3894;49.700;10.770;2023-04-03T02:01:12;2.70;99.90
7704;DHT22;3894;49.700;10.770;2023-04-03T02:03:44;2.70;99.90
7704;DHT22;3894;49.700;10.770;2023-04-03T02:06:09;2.80;99.90
7704;DHT22;3894;49.700;10.770;2023-04-03T02:08:35;2.80;99.90
7704;DHT22;3894;49.700;10.770;2023-04-03T02:11:01;2.80;99.90
7704;DHT22;3894;49.700;10.770;2023-04-03T02:13:29;2.80;99.90
7704;DHT22;3894;49.700;10.770;2023-04-03T02:15:55;2.80;99.90
7704;DHT22;3894;49.700;10.770;2023-04-03T02:18:20;2.80;99.90
7704;DHT22;3894;49.700;10.770;2023-04-03T02:20:46;2.90;99.90
7704;DHT22;3894;49.700;10.770;2023-04-03T02:23:12;2.90;99.90
7704;DHT22;3894;49.700;10.770;2023-04-03T02:25:37;2.80;99.90
7704;DHT22;3894;49.700;10.770;2023-04-03T02:28:05;2.80;99.90
7704;DHT22;3894;49.700;10.770;2023-04-03T02:30:31;2.80;99.90
7704;DHT22;3894;49.700;10.770;2023-04-03T02:32:57;2.80;99.90
7704;DHT22;3894;49.700;10.770;2023-04-03T02:35:22;2.80;99.90
7704;DHT22;3894;49.700;10.770;2023-04-03T02:37:48;2.80;99.90
7704;DHT22;3894;49.700;10.770;2023-04-03T02:40:13;2.80;99.90
7704;DHT22;3894;49.700;10.770;2023-04-03T02:42:39;2.80;99.90
7704;DHT22;3894;49.700;10.770;2023-04-03T02:45:05;2.80;99.90
7704;DHT22;3894;49.700;10.770;2023-04-03T02:47:31;2.80;99.90
7704;DHT22;3894;49.700;10.770;2023-04-03T02:49:57;2.80;99.90
7704;DHT22;3894;49.700;10.770;2023-04-03T02:52:22;2.80;99.90
7704;DHT22;3894;49.700;10.770;2023-04-03T02:54:48;2.80;99.90
7704;DHT22;3894;49.700;10.770;2023-04-03T02:57:14;2.80;99.90
7704;DHT22;3894;49.700;10.770;2023-04-03T02:59:39;2.80;99.90
7704;DHT22;3894;49.700;10.770;2023-04-03T03:02:09;2.80;99.90
7704;DHT22;3894;49.700;10.770;2023-04-03T03:04:35;2.80;99.90
7704;DHT22;3894;49.700;10.770;2023-04-03T03:07:01;2.80;99.90
7704;DHT22;3894;49.700;10.770;2023-04-03T03:09:27;2.80;99.90
7704;DHT22;3894;49.700;10.770;2023-04-03T03:11:56;2.80;99.90
7704;DHT22;3894;49.700;10.770;2023-04-03T03:14:22;2.80;99.90
7704;DHT22;3894;49.700;10.770;2023-04-03T03:16:47;2.80;99.90
7704;DHT22;3894;49.700;10.770;2023-04-03T03:19:13;2.80;99.90
7704;DHT22;3894;49.700;10.770;2023-04-03T03:21:38;2.80;99.90
7704;DHT22;3894;49.700;10.770;2023-04-03T03:24:07;2.80;99.90
7704;DHT22;3894;49.700;10.770;2023-04-03T03:26:33;2.70;99.90
7704;DHT22;3894;49.700;10.770;2023-04-03T03:28:58;2.70;99.90
7704;DHT22;3894;49.700;10.770;2023-04-03T03:31:24;2.70;99.90
7704;DHT22;3894;49.700;10.770;2023-04-03T03:33:50;2.70;99.90
7704;DHT22;3894;49.700;10.770;2023-04-03T03:36:15;2.70;99.90
7704;DHT22;3894;49.700;10.770;2023-04-03T03:38:41;2.70;99.90
7704;DHT22;3894;49.700;10.770;2023-04-03T03:41:06;2.70;99.90
7704;DHT22;3894;49.700;10.770;2023-04-03T03:43:32;2.70;99.90
7704;DHT22;3894;49.700;10.770;2023-04-03T03:45:58;2.70;99.90
7704;DHT22;3894;49.700;10.770;2023-04-03T03:48:23;2.70;99.90
7704;DHT22;3894;49.700;10.770;2023-04-03T03:50:49;2.70;99.90
7704;DHT22;3894;49.700;10.770;2023-04-03T03:53:15;2.70;99.90
7704;DHT22;3894;49.700;10.770;2023-04-03T03:55:41;2.70;99.90
7704;DHT22;3894;49.700;10.770;2023-04-03T03:58:07;2.70;99.90
7704;DHT22;3894;49.700;10.770;2023-04-03T04:00:33;2.70;99.90
7704;DHT22;3894;49.700;10.770;2023-04-03T04:02:58;2.70;99.90
7704;DHT22;3894;49.700;10.770;2023-04-03T04:05:24;2.70;99.90
7704;DHT22;3894;49.700;10.770;2023-04-03T04:07:52;2.70;99.90
7704;DHT22;3894;49.700;10.770;2023-04-03T04:10:18;2.70;99.90
7704;DHT22;3894;49.700;10.770;2023-04-03T04:12:43;2.60;99.90
7704;DHT22;3894;49.700;10.770;2023-04-03T04:15:12;2.60;99.90
7704;DHT22;3894;49.700;10.770;2023-04-03T04:17:37;2.60;99.90
7704;DHT22;3894;49.700;10.770;2023-04-03T04:20:03;2.60;99.90
7704;DHT22;3894;49.700;10.770;2023-04-03T04:22:33;2.50;99.90
7704;DHT22;3894;49.700;10.770;2023-04-03T04:25:04;2.50;99.90
7704;DHT22;3894;49.700;10.770;2023-04-03T04:27:30;2.40;99.90
7704;DHT22;3894;49.700;10.770;2023-04-03T04:29:56;2.40;99.90
7704;DHT22;3894;49.700;10.770;2023-04-03T04:32:21;2.40;99.90
7704;DHT22;3894;49.700;10.770;2023-04-03T04:34:47;2.30;99.90
7704;DHT22;3894;49.700;10.770;2023-04-03T04:37:12;2.30;99.90
7704;DHT22;3894;49.700;10.770;2023-04-03T04:39:38;2.30;99.90
7704;DHT22;3894;49.700;10.770;2023-04-03T04:42:04;2.20;99.90
7704;DHT22;3894;49.700;10.770;2023-04-03T04:44:29;2.20;99.90
7704;DHT22;3894;49.700;10.770;2023-04-03T04:46:55;2.20;99.90
7704;DHT22;3894;49.700;10.770;2023-04-03T04:49:20;2.20;99.90
7704;DHT22;3894;49.700;10.770;2023-04-03T04:51:46;2.20;99.90
7704;DHT22;3894;49.700;10.770;2023-04-03T04:54:11;2.10;99.90
7704;DHT22;3894;49.700;10.770;2023-04-03T04:56:37;2.10;99.90
7704;DHT22;3894;49.700;10.770;2023-04-03T04:59:03;2.10;99.90
7704;DHT22;3894;49.700;10.770;2023-04-03T05:01:30;2.10;99.90
7704;DHT22;3894;49.700;10.770;2023-04-03T05:03:56;2.10;99.90
7704;DHT22;3894;49.700;10.770;2023-04-03T05:06:22;2.10;99.90
7704;DHT22;3894;49.700;10.770;2023-04-03T05:08:47;2.10;99.90
7704;DHT22;3894;49.700;10.770;2023-04-03T05:11:13;2.10;99.90
7704;DHT22;3894;49.700;10.770;2023-04-03T05:13:38;2.00;99.90
7704;DHT22;3894;49.700;10.770;2023-04-03T05:16:04;2.10;99.90
7704;DHT22;3894;49.700;10.770;2023-04-03T05:18:30;2.00;99.90
7704;DHT22;3894;49.700;10.770;2023-04-03T05:20:55;2.00;99.90
7704;DHT22;3894;49.700;10.770;2023-04-03T05:23:21;2.00;99.90
7704;DHT22;3894;49.700;10.770;2023-04-03T05:25:47;2.00;99.90
7704;DHT22;3894;49.700;10.770;2023-04-03T05:28:14;2.00;99.90
7704;DHT22;3894;49.700;10.770;2023-04-03T05:30:40;2.00;99.90
7704;DHT22;3894;49.700;10.770;2023-04-03T05:33:05;2.00;99.90
7704;DHT22;3894;49.700;10.770;2023-04-03T05:35:31;2.00;99.90
7704;DHT22;3894;49.700;10.770;2023-04-03T05:37:57;2.00;99.90
7704;DHT22;3894;49.700;10.770;2023-04-03T05:40:22;2.00;99.90
7704;DHT22;3894;49.700;10.770;2023-04-03T05:42:48;2.00;99.90
7704;DHT22;3894;49.700;10.770;2023-04-03T05:45:13;2.00;99.90
7704;DHT22;3894;49.700;10.770;2023-04-03T05:47:39;2.00;99.90
7704;DHT22;3894;49.700;10.770;2023-04-03T05:50:05;2.00;99.90
7704;DHT22;3894;49.700;10.770;2023-04-03T05:52:35;2.00;99.90
7704;DHT22;3894;49.700;10.770;2023-04-03T05:55:01;2.00;99.90
7704;DHT22;3894;49.700;10.770;2023-04-03T05:57:27;2.00;99.90
7704;DHT22;3894;49.700;10.770;2023-04-03T05:59:52;2.00;99.90
7704;DHT22;3894;49.700;10.770;2023-04-03T06:02:23;2.10;99.90
7704;DHT22;3894;49.700;10.770;2023-04-03T06:04:48;2.10;99.90
7704;DHT22;3894;49.700;10.770;2023-04-03T06:07:17;2.10;99.90
7704;DHT22;3894;49.700;10.770;2023-04-03T06:09:43;2.10;99.90
7704;DHT22;3894;49.700;10.770;2023-04-03T06:12:09;2.10;99.90
7704;DHT22;3894;49.700;10.770;2023-04-03T06:14:35;2.10;99.90
7704;DHT22;3894;49.700;10.770;2023-04-03T06:17:01;2.10;99.90
7704;DHT22;3894;49.700;10.770;2023-04-03T06:19:27;2.20;99.90
7704;DHT22;3894;49.700;10.770;2023-04-03T06:21:53;2.20;99.90
7704;DHT22;3894;49.700;10.770;2023-04-03T06:24:19;2.20;99.90
7704;DHT22;3894;49.700;10.770;2023-04-03T06:27:15;2.20;99.90
7704;DHT22;3894;49.700;10.770;2023-04-03T06:29:40;2.20;99.90
7704;DHT22;3894;49.700;10.770;2023-04-03T06:32:06;2.30;99.90
7704;DHT22;3894;49.700;10.770;2023-04-03T06:34:32;2.30;99.90
7704;DHT22;3894;49.700;10.770;2023-04-03T06:36:57;2.40;99.90
7704;DHT22;3894;49.700;10.770;2023-04-03T06:39:23;2.40;99.90
7704;DHT22;3894;49.700;10.770;2023-04-03T06:41:49;2.50;99.90
7704;DHT22;3894;49.700;10.770;2023-04-03T06:44:18;2.60;99.90
7704;DHT22;3894;49.700;10.770;2023-04-03T06:46:44;2.60;99.90
7704;DHT22;3894;49.700;10.770;2023-04-03T06:49:12;2.60;99.90
7704;DHT22;3894;49.700;10.770;2023-04-03T06:51:37;2.60;99.90
7704;DHT22;3894;49.700;10.770;2023-04-03T06:54:05;2.70;99.90
7704;DHT22;3894;49.700;10.770;2023-04-03T06:56:34;2.80;99.90
7704;DHT22;3894;49.700;10.770;2023-04-03T06:59:00;2.90;99.90
7704;DHT22;3894;49.700;10.770;2023-04-03T07:01:27;3.00;99.90
7704;DHT22;3894;49.700;10.770;2023-04-03T07:03:54;3.00;99.90
7704;DHT22;3894;49.700;10.770;2023-04-03T07:06:21;3.10;99.90
7704;DHT22;3894;49.700;10.770;2023-04-03T07:08:46;3.10;99.90
7704;DHT22;3894;49.700;10.770;2023-04-03T07:11:14;3.20;99.90
7704;DHT22;3894;49.700;10.770;2023-04-03T07:13:43;3.20;99.90
7704;DHT22;3894;49.700;10.770;2023-04-03T07:16:09;3.50;99.90
7704;DHT22;3894;49.700;10.770;2023-04-03T07:18:35;3.50;99.90
7704;DHT22;3894;49.700;10.770;2023-04-03T07:21:02;3.50;99.90
7704;DHT22;3894;49.700;10.770;2023-04-03T07:23:28;3.80;99.90
7704;DHT22;3894;49.700;10.770;2023-04-03T07:25:54;3.80;99.90
7704;DHT22;3894;49.700;10.770;2023-04-03T07:28:21;3.80;99.90
7704;DHT22;3894;49.700;10.770;2023-04-03T07:30:50;3.80;99.90
7704;DHT22;3894;49.700;10.770;2023-04-03T07:33:18;3.70;99.90
7704;DHT22;3894;49.700;10.770;2023-04-03T07:35:47;3.80;99.90
7704;DHT22;3894;49.700;10.770;2023-04-03T07:38:13;3.80;99.90
7704;DHT22;3894;49.700;10.770;2023-04-03T07:40:39;3.90;99.90
7704;DHT22;3894;49.700;10.770;2023-04-03T07:43:06;4.00;99.90
7704;DHT22;3894;49.700;10.770;2023-04-03T07:45:34;3.90;99.90
7704;DHT22;3894;49.700;10.770;2023-04-03T07:48:00;3.90;99.90
7704;DHT22;3894;49.700;10.770;2023-04-03T07:50:26;3.90;99.90
7704;DHT22;3894;49.700;10.770;2023-04-03T07:52:52;4.00;99.90
7704;DHT22;3894;49.700;10.770;2023-04-03T07:55:19;4.00;99.90
7704;DHT22;3894;49.700;10.770;2023-04-03T07:57:45;4.00;99.90
7704;DHT22;3894;49.700;10.770;2023-04-03T08:00:19;3.90;99.90
7704;DHT22;3894;49.700;10.770;2023-04-03T08:02:48;3.80;99.90
7704;DHT22;3894;49.700;10.770;2023-04-03T08:05:18;3.80;99.90
7704;DHT22;3894;49.700;10.770;2023-04-03T08:08:26;3.90;99.90
7704;DHT22;3894;49.700;10.770;2023-04-03T08:10:55;3.90;99.90
7704;DHT22;3894;49.700;10.770;2023-04-03T08:13:23;4.00;99.90
7704;DHT22;3894;49.700;10.770;2023-04-03T08:15:50;4.50;99.90
7704;DHT22;3894;49.700;10.770;2023-04-03T08:18:21;4.90;99.90
7704;DHT22;3894;49.700;10.770;2023-04-03T08:20:50;5.30;99.90
7704;DHT22;3894;49.700;10.770;2023-04-03T08:23:21;5.60;99.90
7704;DHT22;3894;49.700;10.770;2023-04-03T08:25:50;5.80;99.90
7704;DHT22;3894;49.700;10.770;2023-04-03T08:28:19;6.00;99.90
7704;DHT22;3894;49.700;10.770;2023-04-03T08:30:45;6.30;99.90
7704;DHT22;3894;49.700;10.770;2023-04-03T08:33:14;6.40;99.90
7704;DHT22;3894;49.700;10.770;2023-04-03T08:35:49;6.70;99.90
7704;DHT22;3894;49.700;10.770;2023-04-03T08:38:15;6.80;99.90
7704;DHT22;3894;49.700;10.770;2023-04-03T08:40:46;6.90;99.90
7704;DHT22;3894;49.700;10.770;2023-04-03T08:49:42;6.10;99.90
7704;DHT22;3894;49.700;10.770;2023-04-03T08:52:39;6.00;99.90
7704;DHT22;3894;49.700;10.770;2023-04-03T08:58:00;6.40;99.90
7704;DHT22;3894;49.700;10.770;2023-04-03T09:00:30;6.40;99.90
7704;DHT22;3894;49.700;10.770;2023-04-03T09:03:00;6.60;99.90
7704;DHT22;3894;49.700;10.770;2023-04-03T09:05:39;6.90;99.90
7704;DHT22;3894;49.700;10.770;2023-04-03T09:08:24;6.90;99.90
7704;DHT22;3894;49.700;10.770;2023-04-03T09:13:59;6.10;99.90
7704;DHT22;3894;49.700;10.770;2023-04-03T09:16:58;5.60;99.90
7704;DHT22;3894;49.700;10.770;2023-04-03T09:19:54;5.50;99.90
7704;DHT22;3894;49.700;10.770;2023-04-03T09:22:31;5.30;99.90
7704;DHT22;3894;49.700;10.770;2023-04-03T09:25:02;5.90;99.90
7704;DHT22;3894;49.700;10.770;2023-04-03T09:28:07;6.20;99.90
7704;DHT22;3894;49.700;10.770;2023-04-03T09:30:43;6.50;99.90
7704;DHT22;3894;49.700;10.770;2023-04-03T09:33:17;6.60;99.90
7704;DHT22;3894;49.700;10.770;2023-04-03T09:35:46;6.70;99.90
7704;DHT22;3894;49.700;10.770;2023-04-03T09:38:18;6.40;99.90
7704;DHT22;3894;49.700;10.770;2023-04-03T09:43:37;6.00;99.90
7704;DHT22;3894;49.700;10.770;2023-04-03T09:56:49;7.40;99.90
7704;DHT22;3894;49.700;10.770;2023-04-03T09:59:31;7.50;99.90
7704;DHT22;3894;49.700;10.770;2023-04-03T10:02:33;7.40;99.90
7704;DHT22;3894;49.700;10.770;2023-04-03T10:08:29;7.00;99.90
7704;DHT22;3894;49.700;10.770;2023-04-03T10:11:16;6.50;99.90
7704;DHT22;3894;49.700;10.770;2023-04-03T10:13:59;6.40;99.90
7704;DHT22;3894;49.700;10.770;2023-04-03T10:16:41;6.80;99.90
7704;DHT22;3894;49.700;10.770;2023-04-03T10:19:55;7.10;99.90
7704;DHT22;3894;49.700;10.770;2023-04-03T10:34:48;7.60;99.90
7704;DHT22;3894;49.700;10.770;2023-04-03T10:37:26;7.70;99.90
7704;DHT22;3894;49.700;10.770;2023-04-03T10:43:20;7.40;99.90
7704;DHT22;3894;49.700;10.770;2023-04-03T10:46:16;7.50;99.90
7704;DHT22;3894;49.700;10.770;2023-04-03T10:49:06;7.70;99.90
7704;DHT22;3894;49.700;10.770;2023-04-03T10:57:36;7.70;99.90
7704;DHT22;3894;49.700;10.770;2023-04-03T11:00:38;7.50;99.90
7704;DHT22;3894;49.700;10.770;2023-04-03T11:03:41;7.70;99.90
7704;DHT22;3894;49.700;10.770;2023-04-03T11:06:24;7.80;99.90
7704;DHT22;3894;49.700;10.770;2023-04-03T11:09:31;7.90;99.90
7704;DHT22;3894;49.700;10.770;2023-04-03T11:12:21;7.90;99.90
7704;DHT22;3894;49.700;10.770;2023-04-03T11:15:28;7.90;99.90
7704;DHT22;3894;49.700;10.770;2023-04-03T11:18:18;8.10;99.90
7704;DHT22;3894;49.700;10.770;2023-04-03T11:21:21;8.10;99.90
7704;DHT22;3894;49.700;10.770;2023-04-03T11:24:37;8.20;99.90
7704;DHT22;3894;49.700;10.770;2023-04-03T11:27:25;8.40;99.90
7704;DHT22;3894;49.700;10.770;2023-04-03T11:29:58;8.50;99.90
7704;DHT22;3894;49.700;10.770;2023-04-03T11:33:02;8.60;99.90
7704;DHT22;3894;49.700;10.770;2023-04-03T11:38:37;8.20;99.90
7704;DHT22;3894;49.700;10.770;2023-04-03T11:41:31;8.30;99.90
7704;DHT22;3894;49.700;10.770;2023-04-03T11:44:30;8.40;99.90
7704;DHT22;3894;49.700;10.770;2023-04-03T11:47:02;8.70;99.90
7704;DHT22;3894;49.700;10.770;2023-04-03T11:49:51;9.00;99.90
7704;DHT22;3894;49.700;10.770;2023-04-03T12:08:29;9.10;99.90
7704;DHT22;3894;49.700;10.770;2023-04-03T12:14:02;9.20;99.90
7704;DHT22;3894;49.700;10.770;2023-04-03T12:16:32;8.90;99.90
7704;DHT22;3894;49.700;10.770;2023-04-03T12:29:59;8.70;99.80
7704;DHT22;3894;49.700;10.770;2023-04-03T12:35:37;8.80;99.90
7704;DHT22;3894;49.700;10.770;2023-04-03T12:38:32;8.90;99.90
7704;DHT22;3894;49.700;10.770;2023-04-03T12:46:50;9.10;99.90
7704;DHT22;3894;49.700;10.770;2023-04-03T12:49:37;8.70;99.90
7704;DHT22;3894;49.700;10.770;2023-04-03T12:52:19;8.90;99.90
7704;DHT22;3894;49.700;10.770;2023-04-03T12:54:46;8.90;99.90
7704;DHT22;3894;49.700;10.770;2023-04-03T12:57:21;8.90;99.90
7704;DHT22;3894;49.700;10.770;2023-04-03T12:59:47;8.50;99.80
7704;DHT22;3894;49.700;10.770;2023-04-03T13:02:27;8.50;99.90
7704;DHT22;3894;49.700;10.770;2023-04-03T13:04:55;8.70;99.90
7704;DHT22;3894;49.700;10.770;2023-04-03T13:07:35;8.80;99.90
7704;DHT22;3894;49.700;10.770;2023-04-03T13:12:33;8.70;99.90
7704;DHT22;3894;49.700;10.770;2023-04-03T13:15:15;8.60;99.30
7704;DHT22;3894;49.700;10.770;2023-04-03T13:17:42;8.50;99.20
7704;DHT22;3894;49.700;10.770;2023-04-03T13:20:28;8.60;99.50
7704;DHT22;3894;49.700;10.770;2023-04-03T13:23:00;8.50;99.20
7704;DHT22;3894;49.700;10.770;2023-04-03T13:25:30;8.70;99.90
7704;DHT22;3894;49.700;10.770;2023-04-03T13:27:58;8.80;99.30
7704;DHT22;3894;49.700;10.770;2023-04-03T13:30:28;8.60;99.10
7704;DHT22;3894;49.700;10.770;2023-04-03T13:32:57;8.50;98.90
7704;DHT22;3894;49.700;10.770;2023-04-03T13:35:38;8.40;98.50
7704;DHT22;3894;49.700;10.770;2023-04-03T13:38:22;8.30;98.80
7704;DHT22;3894;49.700;10.770;2023-04-03T13:40:57;8.40;99.10
7704;DHT22;3894;49.700;10.770;2023-04-03T13:43:32;8.30;99.10
7704;DHT22;3894;49.700;10.770;2023-04-03T13:46:05;8.30;99.10
7704;DHT22;3894;49.700;10.770;2023-04-03T13:51:18;8.20;98.90
7704;DHT22;3894;49.700;10.770;2023-04-03T13:56:21;7.90;98.40
7704;DHT22;3894;49.700;10.770;2023-04-03T14:01:47;7.90;99.10
7704;DHT22;3894;49.700;10.770;2023-04-03T14:04:19;7.90;99.00
7704;DHT22;3894;49.700;10.770;2023-04-03T14:06:45;7.90;97.90
7704;DHT22;3894;49.700;10.770;2023-04-03T14:09:12;7.80;98.30
7704;DHT22;3894;49.700;10.770;2023-04-03T14:11:38;7.90;99.10
7704;DHT22;3894;49.700;10.770;2023-04-03T14:14:29;7.70;98.30
7704;DHT22;3894;49.700;10.770;2023-04-03T14:16:58;7.60;98.70
7704;DHT22;3894;49.700;10.770;2023-04-03T14:19:33;7.50;98.10
7704;DHT22;3894;49.700;10.770;2023-04-03T14:22:07;7.50;98.50
7704;DHT22;3894;49.700;10.770;2023-04-03T14:24:32;7.50;98.70
7704;DHT22;3894;49.700;10.770;2023-04-03T14:26:58;7.40;98.00
7704;DHT22;3894;49.700;10.770;2023-04-03T14:29:24;7.40;98.00
7704;DHT22;3894;49.700;10.770;2023-04-03T14:31:50;7.40;98.00
7704;DHT22;3894;49.700;10.770;2023-04-03T14:34:16;7.40;98.00
7704;DHT22;3894;49.700;10.770;2023-04-03T14:36:43;7.40;98.00
7704;DHT22;3894;49.700;10.770;2023-04-03T14:39:17;7.40;97.90
7704;DHT22;3894;49.700;10.770;2023-04-03T14:41:43;7.30;97.70
7704;DHT22;3894;49.700;10.770;2023-04-03T14:44:09;7.30;98.40
7704;DHT22;3894;49.700;10.770;2023-04-03T14:46:37;7.20;98.00
7704;DHT22;3894;49.700;10.770;2023-04-03T14:49:18;7.20;98.40
7704;DHT22;3894;49.700;10.770;2023-04-03T14:51:44;7.20;98.60
7704;DHT22;3894;49.700;10.770;2023-04-03T14:54:16;7.10;99.10
7704;DHT22;3894;49.700;10.770;2023-04-03T14:56:42;7.10;99.10
7704;DHT22;3894;49.700;10.770;2023-04-03T14:59:12;7.10;99.00
7704;DHT22;3894;49.700;10.770;2023-04-03T15:01:39;7.10;98.80
7704;DHT22;3894;49.700;10.770;2023-04-03T15:04:15;7.00;98.80
7704;DHT22;3894;49.700;10.770;2023-04-03T15:06:42;7.00;98.70
7704;DHT22;3894;49.700;10.770;2023-04-03T15:09:34;7.00;98.50
7704;DHT22;3894;49.700;10.770;2023-04-03T15:11:59;6.90;98.30
7704;DHT22;3894;49.700;10.770;2023-04-03T15:14:25;6.90;98.00
7704;DHT22;3894;49.700;10.770;2023-04-03T15:16:50;6.80;97.80
7704;DHT22;3894;49.700;10.770;2023-04-03T15:19:16;6.80;97.90
7704;DHT22;3894;49.700;10.770;2023-04-03T15:21:42;6.80;97.90
7704;DHT22;3894;49.700;10.770;2023-04-03T15:24:09;6.80;97.90
7704;DHT22;3894;49.700;10.770;2023-04-03T15:26:34;6.80;98.30
7704;DHT22;3894;49.700;10.770;2023-04-03T15:29:00;6.80;98.50
7704;DHT22;3894;49.700;10.770;2023-04-03T15:31:26;6.80;98.40
7704;DHT22;3894;49.700;10.770;2023-04-03T15:33:52;6.80;98.20
7704;DHT22;3894;49.700;10.770;2023-04-03T15:36:18;6.80;98.20
7704;DHT22;3894;49.700;10.770;2023-04-03T15:38:43;6.70;97.80
7704;DHT22;3894;49.700;10.770;2023-04-03T15:41:09;6.70;97.50
7704;DHT22;3894;49.700;10.770;2023-04-03T15:43:34;6.60;97.20
7704;DHT22;3894;49.700;10.770;2023-04-03T15:46:00;6.60;97.20
7704;DHT22;3894;49.700;10.770;2023-04-03T15:48:27;6.50;97.40
7704;DHT22;3894;49.700;10.770;2023-04-03T15:50:53;6.50;97.80
7704;DHT22;3894;49.700;10.770;2023-04-03T15:53:19;6.40;97.80
7704;DHT22;3894;49.700;10.770;2023-04-03T15:55:45;6.40;98.10
7704;DHT22;3894;49.700;10.770;2023-04-03T15:58:11;6.40;98.40
7704;DHT22;3894;49.700;10.770;2023-04-03T16:00:37;6.40;98.80
7704;DHT22;3894;49.700;10.770;2023-04-03T16:03:17;6.30;98.50
7704;DHT22;3894;49.700;10.770;2023-04-03T16:05:43;6.40;98.80
7704;DHT22;3894;49.700;10.770;2023-04-03T16:08:09;6.40;99.20
7704;DHT22;3894;49.700;10.770;2023-04-03T16:10:36;6.40;98.70
7704;DHT22;3894;49.700;10.770;2023-04-03T16:13:02;6.30;98.50
7704;DHT22;3894;49.700;10.770;2023-04-03T16:15:29;6.20;98.30
7704;DHT22;3894;49.700;10.770;2023-04-03T16:17:55;6.20;98.00
7704;DHT22;3894;49.700;10.770;2023-04-03T16:20:21;6.10;97.90
7704;DHT22;3894;49.700;10.770;2023-04-03T16:22:48;6.10;98.20
7704;DHT22;3894;49.700;10.770;2023-04-03T16:25:13;6.00;98.10
7704;DHT22;3894;49.700;10.770;2023-04-03T16:27:39;6.00;98.30
7704;DHT22;3894;49.700;10.770;2023-04-03T16:30:06;6.00;98.60
7704;DHT22;3894;49.700;10.770;2023-04-03T16:32:32;6.00;98.80
7704;DHT22;3894;49.700;10.770;2023-04-03T16:34:58;5.90;99.10
7704;DHT22;3894;49.700;10.770;2023-04-03T16:37:24;5.90;99.30
7704;DHT22;3894;49.700;10.770;2023-04-03T16:39:50;5.90;99.50
7704;DHT22;3894;49.700;10.770;2023-04-03T16:42:16;5.90;99.40
7704;DHT22;3894;49.700;10.770;2023-04-03T16:44:42;5.80;99.30
7704;DHT22;3894;49.700;10.770;2023-04-03T16:47:08;5.70;99.20
7704;DHT22;3894;49.700;10.770;2023-04-03T16:49:34;5.60;99.20
7704;DHT22;3894;49.700;10.770;2023-04-03T16:52:03;5.60;99.30
7704;DHT22;3894;49.700;10.770;2023-04-03T16:54:30;5.60;99.70
7704;DHT22;3894;49.700;10.770;2023-04-03T16:56:56;5.60;99.90
7704;DHT22;3894;49.700;10.770;2023-04-03T16:59:22;5.50;99.90
7704;DHT22;3894;49.700;10.770;2023-04-03T17:01:48;5.50;99.90
7704;DHT22;3894;49.700;10.770;2023-04-03T17:04:13;5.40;99.90
7704;DHT22;3894;49.700;10.770;2023-04-03T17:06:39;5.30;99.90
7704;DHT22;3894;49.700;10.770;2023-04-03T17:09:06;5.30;99.90
7704;DHT22;3894;49.700;10.770;2023-04-03T17:11:32;5.20;99.90
7704;DHT22;3894;49.700;10.770;2023-04-03T17:13:58;5.20;99.90
7704;DHT22;3894;49.700;10.770;2023-04-03T17:16:24;5.20;99.90
7704;DHT22;3894;49.700;10.770;2023-04-03T17:18:51;5.10;99.90
7704;DHT22;3894;49.700;10.770;2023-04-03T17:21:17;5.00;99.90
7704;DHT22;3894;49.700;10.770;2023-04-03T17:23:46;4.90;99.90
7704;DHT22;3894;49.700;10.770;2023-04-03T17:26:12;4.90;99.90
7704;DHT22;3894;49.700;10.770;2023-04-03T17:28:38;4.80;99.90
7704;DHT22;3894;49.700;10.770;2023-04-03T17:31:05;4.80;99.90
7704;DHT22;3894;49.700;10.770;2023-04-03T17:33:31;4.70;99.90
7704;DHT22;3894;49.700;10.770;2023-04-03T17:35:59;4.60;99.90
7704;DHT22;3894;49.700;10.770;2023-04-03T17:38:28;4.60;99.90
7704;DHT22;3894;49.700;10.770;2023-04-03T17:40:58;4.50;99.90
7704;DHT22;3894;49.700;10.770;2023-04-03T17:43:24;4.50;99.90
7704;DHT22;3894;49.700;10.770;2023-04-03T17:45:50;4.40;99.90
7704;DHT22;3894;49.700;10.770;2023-04-03T17:48:16;4.40;99.90
7704;DHT22;3894;49.700;10.770;2023-04-03T17:50:41;4.40;99.90
7704;DHT22;3894;49.700;10.770;2023-04-03T17:53:07;4.30;99.90
7704;DHT22;3894;49.700;10.770;2023-04-03T17:55:33;4.20;99.90
7704;DHT22;3894;49.700;10.770;2023-04-03T17:57:58;4.20;99.90
7704;DHT22;3894;49.700;10.770;2023-04-03T18:00:24;4.20;99.90
7704;DHT22;3894;49.700;10.770;2023-04-03T18:02:53;4.10;99.90
7704;DHT22;3894;49.700;10.770;2023-04-03T18:05:18;4.00;99.90
7704;DHT22;3894;49.700;10.770;2023-04-03T18:07:44;4.00;99.90